sensor_id;sensor_type;location;lat;lon;timestamp;P1;durP1;ratioP1;P2;durP2;ratioP2
9809;SDS011;4944;52.514;13.192;2022-08-19T00:00:29;10.55;;;9.75;;
9809;SDS011;4944;52.514;13.192;2022-08-19T00:02:56;9.85;;;9.15;;
9809;SDS011;4944;52.514;13.192;2022-08-19T00:05:23;10.80;;;9.82;;
9809;SDS011;4944;52.514;13.192;2022-08-19T00:07:49;10.20;;;9.40;;
9809;SDS011;4944;52.514;13.192;2022-08-19T00:10:17;9.52;;;8.85;;
9809;SDS011;4944;52.514;13.192;2022-08-19T00:12:45;9.80;;;9.05;;
9809;SDS011;4944;52.514;13.192;2022-08-19T00:15:13;10.20;;;9.38;;
9809;SDS011;4944;52.514;13.192;2022-08-19T00:17:43;10.02;;;9.32;;
9809;SDS011;4944;52.514;13.192;2022-08-19T00:20:11;9.32;;;8.73;;
9809;SDS011;4944;52.514;13.192;2022-08-19T00:22:41;9.45;;;8.73;;
9809;SDS011;4944;52.514;13.192;2022-08-19T00:25:09;9.77;;;9.05;;
9809;SDS011;4944;52.514;13.192;2022-08-19T00:27:36;9.88;;;9.07;;
9809;SDS011;4944;52.514;13.192;2022-08-19T00:30:04;9.40;;;8.70;;
9809;SDS011;4944;52.514;13.192;2022-08-19T00:32:32;9.52;;;8.93;;
9809;SDS011;4944;52.514;13.192;2022-08-19T00:35:01;10.52;;;9.82;;
9809;SDS011;4944;52.514;13.192;2022-08-19T00:37:28;9.50;;;8.90;;
9809;SDS011;4944;52.514;13.192;2022-08-19T00:39:55;10.45;;;9.73;;
9809;SDS011;4944;52.514;13.192;2022-08-19T00:42:22;9.68;;;8.82;;
9809;SDS011;4944;52.514;13.192;2022-08-19T00:44:53;9.50;;;8.80;;
9809;SDS011;4944;52.514;13.192;2022-08-19T00:47:20;10.13;;;9.30;;
9809;SDS011;4944;52.514;13.192;2022-08-19T00:49:47;9.45;;;8.73;;
9809;SDS011;4944;52.514;13.192;2022-08-19T00:52:18;10.10;;;9.20;;
9809;SDS011;4944;52.514;13.192;2022-08-19T00:54:48;9.88;;;9.27;;
9809;SDS011;4944;52.514;13.192;2022-08-19T00:57:18;9.50;;;8.82;;
9809;SDS011;4944;52.514;13.192;2022-08-19T00:59:48;10.02;;;9.23;;
9809;SDS011;4944;52.514;13.192;2022-08-19T01:02:19;9.25;;;8.45;;
9809;SDS011;4944;52.514;13.192;2022-08-19T01:04:46;8.43;;;7.93;;
9809;SDS011;4944;52.514;13.192;2022-08-19T01:07:13;9.30;;;8.52;;
9809;SDS011;4944;52.514;13.192;2022-08-19T01:09:41;9.82;;;9.10;;
9809;SDS011;4944;52.514;13.192;2022-08-19T01:12:08;9.18;;;8.48;;
9809;SDS011;4944;52.514;13.192;2022-08-19T01:14:35;10.70;;;9.02;;
9809;SDS011;4944;52.514;13.192;2022-08-19T01:17:05;9.75;;;9.00;;
9809;SDS011;4944;52.514;13.192;2022-08-19T01:19:34;9.90;;;9.20;;
9809;SDS011;4944;52.514;13.192;2022-08-19T01:22:04;10.13;;;9.23;;
9809;SDS011;4944;52.514;13.192;2022-08-19T01:24:36;9.90;;;8.95;;
9809;SDS011;4944;52.514;13.192;2022-08-19T01:27:03;9.18;;;8.48;;
9809;SDS011;4944;52.514;13.192;2022-08-19T01:29:30;9.70;;;9.00;;
9809;SDS011;4944;52.514;13.192;2022-08-19T01:31:57;10.13;;;9.43;;
9809;SDS011;4944;52.514;13.192;2022-08-19T01:34:25;9.60;;;8.80;;
9809;SDS011;4944;52.514;13.192;2022-08-19T01:36:51;10.10;;;9.20;;
9809;SDS011;4944;52.514;13.192;2022-08-19T01:39:19;9.63;;;8.93;;
9809;SDS011;4944;52.514;13.192;2022-08-19T01:41:49;9.30;;;8.60;;
9809;SDS011;4944;52.514;13.192;2022-08-19T01:44:17;9.15;;;8.48;;
9809;SDS011;4944;52.514;13.192;2022-08-19T01:46:45;8.93;;;8.23;;
9809;SDS011;4944;52.514;13.192;2022-08-19T01:49:14;9.70;;;8.73;;
9809;SDS011;4944;52.514;13.192;2022-08-19T01:51:41;9.75;;;8.82;;
9809;SDS011;4944;52.514;13.192;2022-08-19T01:54:08;9.32;;;8.63;;
9809;SDS011;4944;52.514;13.192;2022-08-19T01:56:36;9.45;;;8.77;;
9809;SDS011;4944;52.514;13.192;2022-08-19T01:59:05;10.15;;;9.18;;
9809;SDS011;4944;52.514;13.192;2022-08-19T02:01:36;9.73;;;8.55;;
9809;SDS011;4944;52.514;13.192;2022-08-19T02:04:03;9.18;;;8.48;;
9809;SDS011;4944;52.514;13.192;2022-08-19T02:06:31;9.43;;;8.63;;
9809;SDS011;4944;52.514;13.192;2022-08-19T02:08:58;10.05;;;9.18;;
9809;SDS011;4944;52.514;13.192;2022-08-19T02:11:26;9.98;;;9.20;;
9809;SDS011;4944;52.514;13.192;2022-08-19T02:13:56;11.07;;;10.05;;
9809;SDS011;4944;52.514;13.192;2022-08-19T02:16:25;10.30;;;9.30;;
9809;SDS011;4944;52.514;13.192;2022-08-19T02:18:52;10.13;;;9.32;;
9809;SDS011;4944;52.514;13.192;2022-08-19T02:21:20;11.02;;;10.13;;
9809;SDS011;4944;52.514;13.192;2022-08-19T02:23:48;11.10;;;10.15;;
9809;SDS011;4944;52.514;13.192;2022-08-19T02:26:16;11.43;;;10.50;;
9809;SDS011;4944;52.514;13.192;2022-08-19T02:28:43;12.27;;;11.13;;
9809;SDS011;4944;52.514;13.192;2022-08-19T02:31:10;11.80;;;10.80;;
9809;SDS011;4944;52.514;13.192;2022-08-19T02:33:41;12.38;;;11.27;;
9809;SDS011;4944;52.514;13.192;2022-08-19T02:36:09;11.93;;;10.93;;
9809;SDS011;4944;52.514;13.192;2022-08-19T02:38:37;12.52;;;11.40;;
9809;SDS011;4944;52.514;13.192;2022-08-19T02:41:07;12.43;;;11.35;;
9809;SDS011;4944;52.514;13.192;2022-08-19T02:43:37;13.80;;;12.60;;
9809;SDS011;4944;52.514;13.192;2022-08-19T02:46:10;11.73;;;10.70;;
9809;SDS011;4944;52.514;13.192;2022-08-19T02:48:38;11.82;;;10.82;;
9809;SDS011;4944;52.514;13.192;2022-08-19T02:51:06;13.00;;;10.80;;
9809;SDS011;4944;52.514;13.192;2022-08-19T02:53:33;12.75;;;11.43;;
9809;SDS011;4944;52.514;13.192;2022-08-19T02:56:00;11.98;;;10.95;;
9809;SDS011;4944;52.514;13.192;2022-08-19T02:58:30;11.15;;;10.35;;
9809;SDS011;4944;52.514;13.192;2022-08-19T03:00:57;12.02;;;10.80;;
9809;SDS011;4944;52.514;13.192;2022-08-19T03:03:24;11.73;;;10.73;;
9809;SDS011;4944;52.514;13.192;2022-08-19T03:06:02;11.95;;;11.05;;
9809;SDS011;4944;52.514;13.192;2022-08-19T03:08:36;11.30;;;10.27;;
9809;SDS011;4944;52.514;13.192;2022-08-19T03:11:05;11.93;;;10.82;;
9809;SDS011;4944;52.514;13.192;2022-08-19T03:13:32;10.43;;;9.50;;
9809;SDS011;4944;52.514;13.192;2022-08-19T03:15:58;11.45;;;10.65;;
9809;SDS011;4944;52.514;13.192;2022-08-19T03:18:25;10.93;;;10.13;;
9809;SDS011;4944;52.514;13.192;2022-08-19T03:20:53;11.43;;;10.27;;
9809;SDS011;4944;52.514;13.192;2022-08-19T03:23:21;11.48;;;10.48;;
9809;SDS011;4944;52.514;13.192;2022-08-19T03:25:50;10.40;;;9.60;;
9809;SDS011;4944;52.514;13.192;2022-08-19T03:28:18;10.73;;;9.98;;
9809;SDS011;4944;52.514;13.192;2022-08-19T03:30:54;11.10;;;10.20;;
9809;SDS011;4944;52.514;13.192;2022-08-19T03:33:23;11.18;;;10.35;;
9809;SDS011;4944;52.514;13.192;2022-08-19T03:36:08;11.50;;;10.38;;
9809;SDS011;4944;52.514;13.192;2022-08-19T03:38:38;12.50;;;11.32;;
9809;SDS011;4944;52.514;13.192;2022-08-19T03:41:09;10.75;;;9.80;;
9809;SDS011;4944;52.514;13.192;2022-08-19T03:43:37;11.25;;;10.20;;
9809;SDS011;4944;52.514;13.192;2022-08-19T03:46:08;11.25;;;10.25;;
9809;SDS011;4944;52.514;13.192;2022-08-19T03:48:39;10.20;;;9.50;;
9809;SDS011;4944;52.514;13.192;2022-08-19T03:51:14;11.23;;;10.13;;
9809;SDS011;4944;52.514;13.192;2022-08-19T03:53:42;11.73;;;10.82;;
9809;SDS011;4944;52.514;13.192;2022-08-19T03:56:09;11.43;;;10.52;;
9809;SDS011;4944;52.514;13.192;2022-08-19T03:58:37;10.68;;;9.70;;
9809;SDS011;4944;52.514;13.192;2022-08-19T04:01:06;10.80;;;9.95;;
9809;SDS011;4944;52.514;13.192;2022-08-19T04:03:34;11.05;;;10.18;;
9809;SDS011;4944;52.514;13.192;2022-08-19T04:06:12;11.45;;;10.55;;
9809;SDS011;4944;52.514;13.192;2022-08-19T04:08:41;10.18;;;9.40;;
9809;SDS011;4944;52.514;13.192;2022-08-19T04:11:09;10.23;;;9.38;;
9809;SDS011;4944;52.514;13.192;2022-08-19T04:13:37;11.10;;;10.25;;
9809;SDS011;4944;52.514;13.192;2022-08-19T04:16:05;10.88;;;9.95;;
9809;SDS011;4944;52.514;13.192;2022-08-19T04:18:33;10.57;;;9.70;;
9809;SDS011;4944;52.514;13.192;2022-08-19T04:21:00;9.98;;;9.18;;
9809;SDS011;4944;52.514;13.192;2022-08-19T04:23:31;9.75;;;8.85;;
9809;SDS011;4944;52.514;13.192;2022-08-19T04:25:58;10.43;;;9.52;;
9809;SDS011;4944;52.514;13.192;2022-08-19T04:28:25;9.68;;;8.88;;
9809;SDS011;4944;52.514;13.192;2022-08-19T04:30:53;10.50;;;9.70;;
9809;SDS011;4944;52.514;13.192;2022-08-19T04:33:21;9.80;;;9.18;;
9809;SDS011;4944;52.514;13.192;2022-08-19T04:35:51;9.52;;;8.82;;
9809;SDS011;4944;52.514;13.192;2022-08-19T04:38:19;10.00;;;9.23;;
9809;SDS011;4944;52.514;13.192;2022-08-19T04:40:50;9.85;;;9.15;;
9809;SDS011;4944;52.514;13.192;2022-08-19T04:43:36;10.77;;;9.70;;
9809;SDS011;4944;52.514;13.192;2022-08-19T04:46:04;10.57;;;9.68;;
9809;SDS011;4944;52.514;13.192;2022-08-19T04:48:34;11.27;;;10.27;;
9809;SDS011;4944;52.514;13.192;2022-08-19T04:51:04;10.05;;;9.25;;
9809;SDS011;4944;52.514;13.192;2022-08-19T04:53:34;10.52;;;9.65;;
9809;SDS011;4944;52.514;13.192;2022-08-19T04:56:08;10.68;;;9.60;;
9809;SDS011;4944;52.514;13.192;2022-08-19T04:58:36;9.50;;;8.57;;
9809;SDS011;4944;52.514;13.192;2022-08-19T05:01:04;10.20;;;9.25;;
9809;SDS011;4944;52.514;13.192;2022-08-19T05:03:31;9.70;;;8.80;;
9809;SDS011;4944;52.514;13.192;2022-08-19T05:06:03;9.95;;;9.25;;
9809;SDS011;4944;52.514;13.192;2022-08-19T05:08:32;10.35;;;9.55;;
9809;SDS011;4944;52.514;13.192;2022-08-19T05:11:00;9.80;;;9.05;;
9809;SDS011;4944;52.514;13.192;2022-08-19T05:13:31;10.32;;;9.50;;
9809;SDS011;4944;52.514;13.192;2022-08-19T05:15:58;10.38;;;9.63;;
9809;SDS011;4944;52.514;13.192;2022-08-19T05:18:25;11.63;;;10.30;;
9809;SDS011;4944;52.514;13.192;2022-08-19T05:21:10;11.43;;;10.52;;
9809;SDS011;4944;52.514;13.192;2022-08-19T05:23:56;11.23;;;10.25;;
9809;SDS011;4944;52.514;13.192;2022-08-19T05:26:23;11.27;;;10.48;;
9809;SDS011;4944;52.514;13.192;2022-08-19T05:28:52;11.48;;;10.32;;
9809;SDS011;4944;52.514;13.192;2022-08-19T05:31:20;11.35;;;10.45;;
9809;SDS011;4944;52.514;13.192;2022-08-19T05:33:47;11.73;;;10.63;;
9809;SDS011;4944;52.514;13.192;2022-08-19T05:36:15;12.10;;;10.95;;
9809;SDS011;4944;52.514;13.192;2022-08-19T05:38:44;11.45;;;10.45;;
9809;SDS011;4944;52.514;13.192;2022-08-19T05:41:13;11.52;;;10.63;;
9809;SDS011;4944;52.514;13.192;2022-08-19T05:43:41;12.02;;;10.70;;
9809;SDS011;4944;52.514;13.192;2022-08-19T05:46:15;11.27;;;10.38;;
9809;SDS011;4944;52.514;13.192;2022-08-19T05:48:43;11.05;;;10.10;;
9809;SDS011;4944;52.514;13.192;2022-08-19T05:51:10;10.75;;;9.85;;
9809;SDS011;4944;52.514;13.192;2022-08-19T05:53:37;12.07;;;10.98;;
9809;SDS011;4944;52.514;13.192;2022-08-19T05:56:04;12.27;;;10.95;;
9809;SDS011;4944;52.514;13.192;2022-08-19T05:58:32;11.32;;;10.43;;
9809;SDS011;4944;52.514;13.192;2022-08-19T06:00:59;11.68;;;10.63;;
9809;SDS011;4944;52.514;13.192;2022-08-19T06:03:32;12.38;;;11.18;;
9809;SDS011;4944;52.514;13.192;2022-08-19T06:05:59;11.60;;;10.63;;
9809;SDS011;4944;52.514;13.192;2022-08-19T06:08:29;11.77;;;10.57;;
9809;SDS011;4944;52.514;13.192;2022-08-19T06:10:56;15.07;;;10.77;;
9809;SDS011;4944;52.514;13.192;2022-08-19T06:13:23;11.95;;;11.00;;
9809;SDS011;4944;52.514;13.192;2022-08-19T06:15:50;12.40;;;11.30;;
9809;SDS011;4944;52.514;13.192;2022-08-19T06:18:17;11.82;;;10.77;;
9809;SDS011;4944;52.514;13.192;2022-08-19T06:20:46;12.13;;;10.93;;
9809;SDS011;4944;52.514;13.192;2022-08-19T06:23:14;11.32;;;10.25;;
9809;SDS011;4944;52.514;13.192;2022-08-19T06:25:41;12.23;;;10.95;;
9809;SDS011;4944;52.514;13.192;2022-08-19T06:28:08;12.05;;;11.05;;
9809;SDS011;4944;52.514;13.192;2022-08-19T06:30:35;11.93;;;10.93;;
9809;SDS011;4944;52.514;13.192;2022-08-19T06:33:03;12.70;;;11.68;;
9809;SDS011;4944;52.514;13.192;2022-08-19T06:35:29;12.05;;;10.85;;
9809;SDS011;4944;52.514;13.192;2022-08-19T06:37:58;11.27;;;10.25;;
9809;SDS011;4944;52.514;13.192;2022-08-19T06:40:24;11.52;;;10.52;;
9809;SDS011;4944;52.514;13.192;2022-08-19T06:42:52;12.40;;;11.30;;
9809;SDS011;4944;52.514;13.192;2022-08-19T06:45:21;11.43;;;10.43;;
9809;SDS011;4944;52.514;13.192;2022-08-19T06:47:47;11.18;;;10.38;;
9809;SDS011;4944;52.514;13.192;2022-08-19T06:50:14;11.60;;;10.60;;
9809;SDS011;4944;52.514;13.192;2022-08-19T06:52:41;11.68;;;10.68;;
9809;SDS011;4944;52.514;13.192;2022-08-19T06:55:09;12.68;;;10.63;;
9809;SDS011;4944;52.514;13.192;2022-08-19T06:57:36;11.82;;;10.90;;
9809;SDS011;4944;52.514;13.192;2022-08-19T07:00:04;10.88;;;10.07;;
9809;SDS011;4944;52.514;13.192;2022-08-19T07:02:35;11.13;;;10.38;;
9809;SDS011;4944;52.514;13.192;2022-08-19T07:05:03;11.60;;;10.70;;
9809;SDS011;4944;52.514;13.192;2022-08-19T07:07:30;11.85;;;10.93;;
9809;SDS011;4944;52.514;13.192;2022-08-19T07:09:57;12.95;;;11.82;;
9809;SDS011;4944;52.514;13.192;2022-08-19T07:12:26;12.00;;;11.02;;
9809;SDS011;4944;52.514;13.192;2022-08-19T07:14:53;11.68;;;10.68;;
9809;SDS011;4944;52.514;13.192;2022-08-19T07:17:20;12.43;;;11.48;;
9809;SDS011;4944;52.514;13.192;2022-08-19T07:19:47;12.68;;;11.52;;
9809;SDS011;4944;52.514;13.192;2022-08-19T07:22:15;12.25;;;11.35;;
9809;SDS011;4944;52.514;13.192;2022-08-19T07:24:43;12.93;;;11.77;;
9809;SDS011;4944;52.514;13.192;2022-08-19T07:27:09;12.57;;;11.45;;
9809;SDS011;4944;52.514;13.192;2022-08-19T07:29:38;13.13;;;11.95;;
9809;SDS011;4944;52.514;13.192;2022-08-19T07:32:05;13.15;;;11.95;;
9809;SDS011;4944;52.514;13.192;2022-08-19T07:34:34;13.10;;;11.82;;
9809;SDS011;4944;52.514;13.192;2022-08-19T07:37:02;13.38;;;12.25;;
9809;SDS011;4944;52.514;13.192;2022-08-19T07:39:31;12.00;;;11.20;;
9809;SDS011;4944;52.514;13.192;2022-08-19T07:42:00;12.40;;;11.48;;
9809;SDS011;4944;52.514;13.192;2022-08-19T07:44:31;12.07;;;11.27;;
9809;SDS011;4944;52.514;13.192;2022-08-19T07:47:00;13.35;;;11.90;;
9809;SDS011;4944;52.514;13.192;2022-08-19T07:49:28;14.20;;;12.85;;
9809;SDS011;4944;52.514;13.192;2022-08-19T07:51:56;13.50;;;12.32;;
9809;SDS011;4944;52.514;13.192;2022-08-19T07:54:27;13.60;;;12.40;;
9809;SDS011;4944;52.514;13.192;2022-08-19T07:56:56;13.60;;;12.30;;
9809;SDS011;4944;52.514;13.192;2022-08-19T07:59:23;13.23;;;12.20;;
9809;SDS011;4944;52.514;13.192;2022-08-19T08:01:50;12.45;;;11.60;;
9809;SDS011;4944;52.514;13.192;2022-08-19T08:04:19;13.00;;;12.00;;
9809;SDS011;4944;52.514;13.192;2022-08-19T08:07:04;14.30;;;12.95;;
9809;SDS011;4944;52.514;13.192;2022-08-19T08:09:49;14.88;;;13.77;;
9809;SDS011;4944;52.514;13.192;2022-08-19T08:12:17;13.57;;;12.32;;
9809;SDS011;4944;52.514;13.192;2022-08-19T08:14:50;13.68;;;12.57;;
9809;SDS011;4944;52.514;13.192;2022-08-19T08:17:20;13.15;;;12.07;;
9809;SDS011;4944;52.514;13.192;2022-08-19T08:19:49;13.00;;;12.10;;
9809;SDS011;4944;52.514;13.192;2022-08-19T08:22:20;14.23;;;13.13;;
9809;SDS011;4944;52.514;13.192;2022-08-19T08:25:06;14.32;;;12.95;;
9809;SDS011;4944;52.514;13.192;2022-08-19T08:27:35;13.00;;;12.00;;
9809;SDS011;4944;52.514;13.192;2022-08-19T08:30:04;13.15;;;12.05;;
9809;SDS011;4944;52.514;13.192;2022-08-19T08:32:34;13.63;;;12.50;;
9809;SDS011;4944;52.514;13.192;2022-08-19T08:35:03;13.38;;;12.07;;
9809;SDS011;4944;52.514;13.192;2022-08-19T08:37:30;13.52;;;12.27;;
9809;SDS011;4944;52.514;13.192;2022-08-19T08:39:57;13.50;;;12.50;;
9809;SDS011;4944;52.514;13.192;2022-08-19T08:42:27;12.57;;;11.68;;
9809;SDS011;4944;52.514;13.192;2022-08-19T08:44:59;13.43;;;12.32;;
9809;SDS011;4944;52.514;13.192;2022-08-19T08:47:32;12.48;;;11.52;;
9809;SDS011;4944;52.514;13.192;2022-08-19T08:50:06;14.30;;;12.77;;
9809;SDS011;4944;52.514;13.192;2022-08-19T08:52:41;13.25;;;12.25;;
9809;SDS011;4944;52.514;13.192;2022-08-19T08:55:12;13.55;;;12.35;;
9809;SDS011;4944;52.514;13.192;2022-08-19T08:57:49;13.57;;;12.48;;
9809;SDS011;4944;52.514;13.192;2022-08-19T09:00:20;13.55;;;12.55;;
9809;SDS011;4944;52.514;13.192;2022-08-19T09:02:51;13.68;;;12.68;;
9809;SDS011;4944;52.514;13.192;2022-08-19T09:05:20;14.32;;;13.13;;
9809;SDS011;4944;52.514;13.192;2022-08-19T09:07:50;13.45;;;12.45;;
9809;SDS011;4944;52.514;13.192;2022-08-19T09:10:25;13.25;;;12.32;;
9809;SDS011;4944;52.514;13.192;2022-08-19T09:12:58;13.85;;;12.93;;
9809;SDS011;4944;52.514;13.192;2022-08-19T09:15:34;12.98;;;11.93;;
9809;SDS011;4944;52.514;13.192;2022-08-19T09:18:06;12.60;;;11.70;;
9809;SDS011;4944;52.514;13.192;2022-08-19T09:20:36;13.48;;;12.38;;
9809;SDS011;4944;52.514;13.192;2022-08-19T09:23:03;12.65;;;11.73;;
9809;SDS011;4944;52.514;13.192;2022-08-19T09:25:30;10.50;;;9.80;;
9809;SDS011;4944;52.514;13.192;2022-08-19T09:27:59;12.68;;;11.52;;
9809;SDS011;4944;52.514;13.192;2022-08-19T09:30:29;13.32;;;12.02;;
9809;SDS011;4944;52.514;13.192;2022-08-19T09:32:57;13.32;;;12.23;;
9809;SDS011;4944;52.514;13.192;2022-08-19T09:35:26;12.52;;;11.52;;
9809;SDS011;4944;52.514;13.192;2022-08-19T09:37:56;13.32;;;12.20;;
9809;SDS011;4944;52.514;13.192;2022-08-19T09:40:24;12.75;;;11.85;;
9809;SDS011;4944;52.514;13.192;2022-08-19T09:42:52;13.02;;;11.95;;
9809;SDS011;4944;52.514;13.192;2022-08-19T09:45:20;11.93;;;11.00;;
9809;SDS011;4944;52.514;13.192;2022-08-19T09:47:47;13.40;;;12.30;;
9809;SDS011;4944;52.514;13.192;2022-08-19T09:50:16;13.93;;;12.85;;
9809;SDS011;4944;52.514;13.192;2022-08-19T09:52:44;12.27;;;11.20;;
9809;SDS011;4944;52.514;13.192;2022-08-19T09:55:12;11.93;;;11.13;;
9809;SDS011;4944;52.514;13.192;2022-08-19T09:57:40;12.63;;;11.68;;
9809;SDS011;4944;52.514;13.192;2022-08-19T10:00:08;12.73;;;11.63;;
9809;SDS011;4944;52.514;13.192;2022-08-19T10:02:36;13.20;;;12.10;;
9809;SDS011;4944;52.514;13.192;2022-08-19T10:05:03;12.93;;;11.85;;
9809;SDS011;4944;52.514;13.192;2022-08-19T10:07:48;12.25;;;11.35;;
9809;SDS011;4944;52.514;13.192;2022-08-19T10:10:17;12.88;;;11.77;;
9809;SDS011;4944;52.514;13.192;2022-08-19T10:12:44;12.40;;;11.50;;
9809;SDS011;4944;52.514;13.192;2022-08-19T10:15:12;12.45;;;11.45;;
9809;SDS011;4944;52.514;13.192;2022-08-19T10:17:39;13.27;;;12.18;;
9809;SDS011;4944;52.514;13.192;2022-08-19T10:20:06;13.23;;;12.02;;
9809;SDS011;4944;52.514;13.192;2022-08-19T10:22:34;12.95;;;12.05;;
9809;SDS011;4944;52.514;13.192;2022-08-19T10:25:02;13.73;;;12.73;;
9809;SDS011;4944;52.514;13.192;2022-08-19T10:27:32;13.25;;;12.25;;
9809;SDS011;4944;52.514;13.192;2022-08-19T10:29:59;12.60;;;11.60;;
9809;SDS011;4944;52.514;13.192;2022-08-19T10:32:26;12.85;;;11.82;;
9809;SDS011;4944;52.514;13.192;2022-08-19T10:34:54;13.50;;;12.27;;
9809;SDS011;4944;52.514;13.192;2022-08-19T10:37:21;13.60;;;12.40;;
9809;SDS011;4944;52.514;13.192;2022-08-19T10:39:48;13.95;;;12.00;;
9809;SDS011;4944;52.514;13.192;2022-08-19T10:42:15;12.93;;;12.02;;
9809;SDS011;4944;52.514;13.192;2022-08-19T10:44:44;12.38;;;11.27;;
9809;SDS011;4944;52.514;13.192;2022-08-19T10:47:13;12.75;;;11.75;;
9809;SDS011;4944;52.514;13.192;2022-08-19T10:49:40;12.07;;;11.18;;
9809;SDS011;4944;52.514;13.192;2022-08-19T10:52:20;12.77;;;11.60;;
9809;SDS011;4944;52.514;13.192;2022-08-19T10:54:59;12.38;;;11.30;;
9809;SDS011;4944;52.514;13.192;2022-08-19T10:57:43;12.93;;;11.85;;
9809;SDS011;4944;52.514;13.192;2022-08-19T11:00:12;12.57;;;11.68;;
9809;SDS011;4944;52.514;13.192;2022-08-19T11:02:40;12.02;;;11.13;;
9809;SDS011;4944;52.514;13.192;2022-08-19T11:05:08;11.90;;;11.00;;
9809;SDS011;4944;52.514;13.192;2022-08-19T11:07:36;11.30;;;10.35;;
9809;SDS011;4944;52.514;13.192;2022-08-19T11:10:04;12.15;;;11.25;;
9809;SDS011;4944;52.514;13.192;2022-08-19T11:12:32;11.82;;;10.88;;
9809;SDS011;4944;52.514;13.192;2022-08-19T11:14:59;11.38;;;10.57;;
9809;SDS011;4944;52.514;13.192;2022-08-19T11:17:27;10.93;;;10.13;;
9809;SDS011;4944;52.514;13.192;2022-08-19T11:19:56;11.50;;;10.60;;
9809;SDS011;4944;52.514;13.192;2022-08-19T11:22:23;11.15;;;10.23;;
9809;SDS011;4944;52.514;13.192;2022-08-19T11:24:50;11.18;;;10.38;;
9809;SDS011;4944;52.514;13.192;2022-08-19T11:27:17;11.00;;;10.10;;
9809;SDS011;4944;52.514;13.192;2022-08-19T11:29:44;10.43;;;9.63;;
9809;SDS011;4944;52.514;13.192;2022-08-19T11:32:11;9.65;;;8.85;;
9809;SDS011;4944;52.514;13.192;2022-08-19T11:34:39;9.25;;;8.68;;
9809;SDS011;4944;52.514;13.192;2022-08-19T11:37:06;9.80;;;8.98;;
9809;SDS011;4944;52.514;13.192;2022-08-19T11:39:34;10.35;;;9.55;;
9809;SDS011;4944;52.514;13.192;2022-08-19T11:42:03;10.27;;;9.57;;
9809;SDS011;4944;52.514;13.192;2022-08-19T11:44:51;9.38;;;8.77;;
9809;SDS011;4944;52.514;13.192;2022-08-19T11:47:19;9.52;;;8.82;;
9809;SDS011;4944;52.514;13.192;2022-08-19T11:49:47;8.73;;;8.25;;
9809;SDS011;4944;52.514;13.192;2022-08-19T11:52:14;9.43;;;8.70;;
9809;SDS011;4944;52.514;13.192;2022-08-19T11:54:41;9.00;;;8.40;;
9809;SDS011;4944;52.514;13.192;2022-08-19T11:57:08;9.02;;;8.43;;
9809;SDS011;4944;52.514;13.192;2022-08-19T11:59:34;8.57;;;8.07;;
9809;SDS011;4944;52.514;13.192;2022-08-19T12:02:01;8.95;;;8.35;;
9809;SDS011;4944;52.514;13.192;2022-08-19T12:04:28;8.77;;;7.97;;
9809;SDS011;4944;52.514;13.192;2022-08-19T12:06:56;8.88;;;8.27;;
9809;SDS011;4944;52.514;13.192;2022-08-19T12:09:23;9.05;;;8.45;;
9809;SDS011;4944;52.514;13.192;2022-08-19T12:11:50;7.95;;;7.45;;
9809;SDS011;4944;52.514;13.192;2022-08-19T12:14:17;9.32;;;8.70;;
9809;SDS011;4944;52.514;13.192;2022-08-19T12:16:43;8.75;;;8.15;;
9809;SDS011;4944;52.514;13.192;2022-08-19T12:19:11;8.48;;;7.78;;
9809;SDS011;4944;52.514;13.192;2022-08-19T12:21:38;8.88;;;8.27;;
9809;SDS011;4944;52.514;13.192;2022-08-19T12:24:06;8.70;;;8.10;;
9809;SDS011;4944;52.514;13.192;2022-08-19T12:26:34;8.23;;;7.65;;
9809;SDS011;4944;52.514;13.192;2022-08-19T12:29:01;8.18;;;7.55;;
9809;SDS011;4944;52.514;13.192;2022-08-19T12:31:29;7.80;;;7.30;;
9809;SDS011;4944;52.514;13.192;2022-08-19T12:33:56;8.30;;;7.80;;
9809;SDS011;4944;52.514;13.192;2022-08-19T12:36:23;7.82;;;7.32;;
9809;SDS011;4944;52.514;13.192;2022-08-19T12:38:50;8.02;;;7.43;;
9809;SDS011;4944;52.514;13.192;2022-08-19T12:41:19;7.53;;;7.03;;
9809;SDS011;4944;52.514;13.192;2022-08-19T12:43:46;7.20;;;6.60;;
9809;SDS011;4944;52.514;13.192;2022-08-19T12:46:14;7.82;;;7.30;;
9809;SDS011;4944;52.514;13.192;2022-08-19T12:48:41;8.32;;;7.60;;
9809;SDS011;4944;52.514;13.192;2022-08-19T12:51:10;8.10;;;7.55;;
9809;SDS011;4944;52.514;13.192;2022-08-19T12:53:39;8.20;;;7.60;;
9809;SDS011;4944;52.514;13.192;2022-08-19T12:56:07;8.32;;;7.65;;
9809;SDS011;4944;52.514;13.192;2022-08-19T12:58:37;7.65;;;7.15;;
9809;SDS011;4944;52.514;13.192;2022-08-19T13:01:07;8.18;;;7.68;;
9809;SDS011;4944;52.514;13.192;2022-08-19T13:03:35;9.63;;;8.63;;
9809;SDS011;4944;52.514;13.192;2022-08-19T13:06:05;8.35;;;7.75;;
9809;SDS011;4944;52.514;13.192;2022-08-19T13:08:32;8.73;;;8.13;;
9809;SDS011;4944;52.514;13.192;2022-08-19T13:11:06;8.63;;;7.93;;
9809;SDS011;4944;52.514;13.192;2022-08-19T13:13:33;8.50;;;7.97;;
9809;SDS011;4944;52.514;13.192;2022-08-19T13:16:05;8.38;;;7.80;;
9809;SDS011;4944;52.514;13.192;2022-08-19T13:18:32;8.68;;;7.97;;
9809;SDS011;4944;52.514;13.192;2022-08-19T13:21:01;8.55;;;7.90;;
9809;SDS011;4944;52.514;13.192;2022-08-19T13:23:31;8.20;;;7.60;;
9809;SDS011;4944;52.514;13.192;2022-08-19T13:25:59;8.50;;;7.82;;
9809;SDS011;4944;52.514;13.192;2022-08-19T13:28:29;8.80;;;8.10;;
9809;SDS011;4944;52.514;13.192;2022-08-19T13:31:18;8.75;;;8.15;;
9809;SDS011;4944;52.514;13.192;2022-08-19T13:34:04;9.25;;;7.97;;
9809;SDS011;4944;52.514;13.192;2022-08-19T13:36:31;8.30;;;7.60;;
9809;SDS011;4944;52.514;13.192;2022-08-19T13:38:59;9.02;;;8.32;;
9809;SDS011;4944;52.514;13.192;2022-08-19T13:41:25;8.93;;;8.38;;
9809;SDS011;4944;52.514;13.192;2022-08-19T13:43:52;9.05;;;8.48;;
9809;SDS011;4944;52.514;13.192;2022-08-19T13:46:21;9.05;;;8.55;;
9809;SDS011;4944;52.514;13.192;2022-08-19T13:48:48;9.30;;;8.68;;
9809;SDS011;4944;52.514;13.192;2022-08-19T13:51:15;9.57;;;8.80;;
9809;SDS011;4944;52.514;13.192;2022-08-19T13:53:44;8.43;;;7.90;;
9809;SDS011;4944;52.514;13.192;2022-08-19T13:56:14;9.00;;;8.45;;
9809;SDS011;4944;52.514;13.192;2022-08-19T13:58:44;8.85;;;8.25;;
9809;SDS011;4944;52.514;13.192;2022-08-19T14:01:11;9.10;;;8.50;;
9809;SDS011;4944;52.514;13.192;2022-08-19T14:03:39;8.88;;;8.27;;
9809;SDS011;4944;52.514;13.192;2022-08-19T14:06:06;10.10;;;9.18;;
9809;SDS011;4944;52.514;13.192;2022-08-19T14:08:33;8.73;;;8.13;;
9809;SDS011;4944;52.514;13.192;2022-08-19T14:11:00;9.45;;;8.82;;
9809;SDS011;4944;52.514;13.192;2022-08-19T14:13:26;9.38;;;8.65;;
9809;SDS011;4944;52.514;13.192;2022-08-19T14:15:53;10.60;;;9.68;;
9809;SDS011;4944;52.514;13.192;2022-08-19T14:18:20;9.43;;;8.77;;
9809;SDS011;4944;52.514;13.192;2022-08-19T14:20:48;9.70;;;9.10;;
9809;SDS011;4944;52.514;13.192;2022-08-19T14:23:15;9.23;;;8.63;;
9809;SDS011;4944;52.514;13.192;2022-08-19T14:25:42;9.02;;;8.52;;
9809;SDS011;4944;52.514;13.192;2022-08-19T14:28:09;9.60;;;8.85;;
9809;SDS011;4944;52.514;13.192;2022-08-19T14:30:36;9.63;;;9.02;;
9809;SDS011;4944;52.514;13.192;2022-08-19T14:33:04;9.75;;;8.90;;
9809;SDS011;4944;52.514;13.192;2022-08-19T14:35:32;10.05;;;9.20;;
9809;SDS011;4944;52.514;13.192;2022-08-19T14:38:00;9.90;;;9.10;;
9809;SDS011;4944;52.514;13.192;2022-08-19T14:40:28;9.40;;;8.88;;
9809;SDS011;4944;52.514;13.192;2022-08-19T14:42:57;9.50;;;8.77;;
9809;SDS011;4944;52.514;13.192;2022-08-19T14:45:29;9.38;;;8.68;;
9809;SDS011;4944;52.514;13.192;2022-08-19T14:47:57;9.40;;;8.73;;
9809;SDS011;4944;52.514;13.192;2022-08-19T14:50:25;9.10;;;8.60;;
9809;SDS011;4944;52.514;13.192;2022-08-19T14:52:57;10.00;;;9.20;;
9809;SDS011;4944;52.514;13.192;2022-08-19T14:55:26;9.40;;;8.80;;